sensor_id;sensor_type;location;lat;lon;timestamp;P1;durP1;ratioP1;P2;durP2;ratioP2
13388;SDS011;6764;53.250;10.410;2023-03-25T00:00:53;3.70;;;2.27;;
13388;SDS011;6764;53.250;10.410;2023-03-25T00:03:23;3.60;;;2.30;;
13388;SDS011;6764;53.250;10.410;2023-03-25T00:05:50;5.67;;;2.53;;
13388;SDS011;6764;53.250;10.410;2023-03-25T00:08:16;4.10;;;2.40;;
13388;SDS011;6764;53.250;10.410;2023-03-25T00:10:42;3.53;;;2.30;;
13388;SDS011;6764;53.250;10.410;2023-03-25T00:13:07;3.27;;;2.13;;
13388;SDS011;6764;53.250;10.410;2023-03-25T00:15:40;6.67;;;2.50;;
13388;SDS011;6764;53.250;10.410;2023-03-25T00:18:11;4.63;;;2.27;;
13388;SDS011;6764;53.250;10.410;2023-03-25T00:20:38;3.50;;;2.57;;
13388;SDS011;6764;53.250;10.410;2023-03-25T00:23:09;4.57;;;2.43;;
13388;SDS011;6764;53.250;10.410;2023-03-25T00:25:38;7.10;;;3.03;;
13388;SDS011;6764;53.250;10.410;2023-03-25T00:28:03;5.37;;;2.80;;
13388;SDS011;6764;53.250;10.410;2023-03-25T00:30:29;4.90;;;2.27;;
13388;SDS011;6764;53.250;10.410;2023-03-25T00:32:55;5.47;;;3.17;;
13388;SDS011;6764;53.250;10.410;2023-03-25T00:35:25;3.93;;;2.53;;
13388;SDS011;6764;53.250;10.410;2023-03-25T00:37:53;3.63;;;2.30;;
13388;SDS011;6764;53.250;10.410;2023-03-25T00:40:24;5.83;;;2.50;;
13388;SDS011;6764;53.250;10.410;2023-03-25T00:42:52;3.70;;;2.40;;
13388;SDS011;6764;53.250;10.410;2023-03-25T00:45:18;3.10;;;2.33;;
13388;SDS011;6764;53.250;10.410;2023-03-25T00:47:44;2.73;;;2.30;;
13388;SDS011;6764;53.250;10.410;2023-03-25T00:50:10;4.97;;;2.80;;
13388;SDS011;6764;53.250;10.410;2023-03-25T00:52:36;4.13;;;2.37;;
13388;SDS011;6764;53.250;10.410;2023-03-25T00:55:02;5.73;;;2.40;;
13388;SDS011;6764;53.250;10.410;2023-03-25T00:57:28;3.20;;;2.10;;
13388;SDS011;6764;53.250;10.410;2023-03-25T00:59:54;2.90;;;2.37;;
13388;SDS011;6764;53.250;10.410;2023-03-25T01:02:20;4.13;;;2.10;;
13388;SDS011;6764;53.250;10.410;2023-03-25T01:04:47;2.87;;;2.17;;
13388;SDS011;6764;53.250;10.410;2023-03-25T01:07:17;5.53;;;2.40;;
13388;SDS011;6764;53.250;10.410;2023-03-25T01:09:44;5.43;;;2.63;;
13388;SDS011;6764;53.250;10.410;2023-03-25T01:12:11;5.97;;;2.77;;
13388;SDS011;6764;53.250;10.410;2023-03-25T01:14:38;6.10;;;2.30;;
13388;SDS011;6764;53.250;10.410;2023-03-25T01:17:04;7.40;;;2.43;;
13388;SDS011;6764;53.250;10.410;2023-03-25T01:19:29;3.27;;;2.20;;
13388;SDS011;6764;53.250;10.410;2023-03-25T01:21:55;3.80;;;2.73;;
13388;SDS011;6764;53.250;10.410;2023-03-25T01:24:21;2.60;;;2.37;;
13388;SDS011;6764;53.250;10.410;2023-03-25T01:26:46;4.40;;;2.73;;
13388;SDS011;6764;53.250;10.410;2023-03-25T01:29:13;2.77;;;2.20;;
13388;SDS011;6764;53.250;10.410;2023-03-25T01:31:40;4.63;;;2.50;;
13388;SDS011;6764;53.250;10.410;2023-03-25T01:34:06;3.73;;;2.73;;
13388;SDS011;6764;53.250;10.410;2023-03-25T01:36:32;4.67;;;2.33;;
13388;SDS011;6764;53.250;10.410;2023-03-25T01:39:00;5.73;;;2.57;;
13388;SDS011;6764;53.250;10.410;2023-03-25T01:41:27;5.47;;;2.60;;
13388;SDS011;6764;53.250;10.410;2023-03-25T01:44:04;5.23;;;2.87;;
13388;SDS011;6764;53.250;10.410;2023-03-25T01:46:32;5.67;;;2.60;;
13388;SDS011;6764;53.250;10.410;2023-03-25T01:48:58;6.03;;;2.50;;
13388;SDS011;6764;53.250;10.410;2023-03-25T01:51:29;5.87;;;2.40;;
13388;SDS011;6764;53.250;10.410;2023-03-25T01:53:59;4.70;;;2.30;;
13388;SDS011;6764;53.250;10.410;2023-03-25T01:56:26;4.70;;;3.00;;
13388;SDS011;6764;53.250;10.410;2023-03-25T01:58:55;4.03;;;2.30;;
13388;SDS011;6764;53.250;10.410;2023-03-25T02:01:25;5.07;;;2.97;;
13388;SDS011;6764;53.250;10.410;2023-03-25T02:03:51;3.90;;;2.40;;
13388;SDS011;6764;53.250;10.410;2023-03-25T02:06:19;5.03;;;2.90;;
13388;SDS011;6764;53.250;10.410;2023-03-25T02:08:52;3.67;;;2.40;;
13388;SDS011;6764;53.250;10.410;2023-03-25T02:11:20;3.97;;;3.10;;
13388;SDS011;6764;53.250;10.410;2023-03-25T02:13:49;4.23;;;2.40;;
13388;SDS011;6764;53.250;10.410;2023-03-25T02:22:07;3.40;;;2.20;;
13388;SDS011;6764;53.250;10.410;2023-03-25T02:27:29;3.93;;;2.30;;
13388;SDS011;6764;53.250;10.410;2023-03-25T02:30:18;4.70;;;2.40;;
13388;SDS011;6764;53.250;10.410;2023-03-25T02:40:54;4.30;;;2.60;;
13388;SDS011;6764;53.250;10.410;2023-03-25T02:43:27;4.60;;;2.10;;
13388;SDS011;6764;53.250;10.410;2023-03-25T02:45:57;4.60;;;2.20;;
13388;SDS011;6764;53.250;10.410;2023-03-25T02:51:00;4.53;;;2.70;;
13388;SDS011;6764;53.250;10.410;2023-03-25T02:53:32;9.43;;;2.50;;
13388;SDS011;6764;53.250;10.410;2023-03-25T02:56:01;4.67;;;2.77;;
13388;SDS011;6764;53.250;10.410;2023-03-25T02:58:32;5.20;;;2.70;;
13388;SDS011;6764;53.250;10.410;2023-03-25T03:00:59;6.23;;;2.70;;
13388;SDS011;6764;53.250;10.410;2023-03-25T03:03:25;4.43;;;2.60;;
13388;SDS011;6764;53.250;10.410;2023-03-25T03:05:52;6.47;;;2.60;;
13388;SDS011;6764;53.250;10.410;2023-03-25T03:16:21;5.90;;;3.00;;
13388;SDS011;6764;53.250;10.410;2023-03-25T03:18:56;5.00;;;3.00;;
13388;SDS011;6764;53.250;10.410;2023-03-25T03:21:35;9.13;;;4.07;;
13388;SDS011;6764;53.250;10.410;2023-03-25T03:27:20;7.07;;;3.50;;
13388;SDS011;6764;53.250;10.410;2023-03-25T03:32:31;3.93;;;3.53;;
13388;SDS011;6764;53.250;10.410;2023-03-25T03:37:41;6.00;;;3.40;;
13388;SDS011;6764;53.250;10.410;2023-03-25T03:40:15;6.90;;;3.30;;
13388;SDS011;6764;53.250;10.410;2023-03-25T03:42:45;5.13;;;3.50;;
13388;SDS011;6764;53.250;10.410;2023-03-25T03:45:21;8.53;;;3.30;;
13388;SDS011;6764;53.250;10.410;2023-03-25T03:47:53;5.10;;;2.93;;
13388;SDS011;6764;53.250;10.410;2023-03-25T03:50:25;5.67;;;2.93;;
13388;SDS011;6764;53.250;10.410;2023-03-25T03:53:07;4.23;;;3.30;;
13388;SDS011;6764;53.250;10.410;2023-03-25T03:55:35;4.97;;;3.90;;
13388;SDS011;6764;53.250;10.410;2023-03-25T03:58:43;4.43;;;3.47;;
13388;SDS011;6764;53.250;10.410;2023-03-25T04:01:21;9.27;;;3.60;;
13388;SDS011;6764;53.250;10.410;2023-03-25T04:03:58;6.77;;;3.20;;
13388;SDS011;6764;53.250;10.410;2023-03-25T04:06:31;5.20;;;3.33;;
13388;SDS011;6764;53.250;10.410;2023-03-25T04:09:49;5.07;;;2.97;;
13388;SDS011;6764;53.250;10.410;2023-03-25T04:12:11;5.83;;;3.07;;
13388;SDS011;6764;53.250;10.410;2023-03-25T04:14:41;3.63;;;3.10;;
13388;SDS011;6764;53.250;10.410;2023-03-25T04:17:08;4.37;;;3.00;;
13388;SDS011;6764;53.250;10.410;2023-03-25T04:19:34;6.80;;;3.47;;
13388;SDS011;6764;53.250;10.410;2023-03-25T04:22:00;4.67;;;3.13;;
13388;SDS011;6764;53.250;10.410;2023-03-25T04:24:29;4.23;;;3.40;;
13388;SDS011;6764;53.250;10.410;2023-03-25T04:26:58;4.07;;;3.30;;
13388;SDS011;6764;53.250;10.410;2023-03-25T04:29:27;5.33;;;3.20;;
13388;SDS011;6764;53.250;10.410;2023-03-25T04:31:55;6.17;;;3.37;;
13388;SDS011;6764;53.250;10.410;2023-03-25T04:34:21;7.07;;;3.30;;
13388;SDS011;6764;53.250;10.410;2023-03-25T04:36:47;8.47;;;3.20;;
13388;SDS011;6764;53.250;10.410;2023-03-25T04:39:16;6.20;;;3.50;;
13388;SDS011;6764;53.250;10.410;2023-03-25T04:41:46;5.93;;;3.23;;
13388;SDS011;6764;53.250;10.410;2023-03-25T04:44:18;4.50;;;3.23;;
13388;SDS011;6764;53.250;10.410;2023-03-25T04:46:45;4.27;;;3.10;;
13388;SDS011;6764;53.250;10.410;2023-03-25T04:49:16;4.50;;;2.90;;
13388;SDS011;6764;53.250;10.410;2023-03-25T04:51:45;4.63;;;3.00;;
13388;SDS011;6764;53.250;10.410;2023-03-25T04:54:13;4.33;;;3.30;;
13388;SDS011;6764;53.250;10.410;2023-03-25T04:56:39;5.60;;;3.53;;
13388;SDS011;6764;53.250;10.410;2023-03-25T04:59:05;4.07;;;3.10;;
13388;SDS011;6764;53.250;10.410;2023-03-25T05:01:31;5.50;;;2.93;;
13388;SDS011;6764;53.250;10.410;2023-03-25T05:04:03;6.27;;;3.50;;
13388;SDS011;6764;53.250;10.410;2023-03-25T05:06:30;4.00;;;3.30;;
13388;SDS011;6764;53.250;10.410;2023-03-25T05:08:57;5.77;;;3.30;;
13388;SDS011;6764;53.250;10.410;2023-03-25T05:11:25;4.73;;;2.97;;
13388;SDS011;6764;53.250;10.410;2023-03-25T05:13:52;6.83;;;3.50;;
13388;SDS011;6764;53.250;10.410;2023-03-25T05:16:18;8.20;;;3.43;;
13388;SDS011;6764;53.250;10.410;2023-03-25T05:18:44;5.73;;;3.10;;
13388;SDS011;6764;53.250;10.410;2023-03-25T05:21:09;6.07;;;3.37;;
13388;SDS011;6764;53.250;10.410;2023-03-25T05:23:36;5.07;;;3.17;;
13388;SDS011;6764;53.250;10.410;2023-03-25T05:26:02;4.50;;;3.40;;
13388;SDS011;6764;53.250;10.410;2023-03-25T05:28:28;10.07;;;4.23;;
13388;SDS011;6764;53.250;10.410;2023-03-25T05:30:54;5.77;;;3.47;;
13388;SDS011;6764;53.250;10.410;2023-03-25T05:33:20;5.00;;;3.50;;
13388;SDS011;6764;53.250;10.410;2023-03-25T05:35:46;4.63;;;3.30;;
13388;SDS011;6764;53.250;10.410;2023-03-25T05:38:12;7.10;;;3.57;;
13388;SDS011;6764;53.250;10.410;2023-03-25T05:40:46;6.30;;;3.73;;
13388;SDS011;6764;53.250;10.410;2023-03-25T05:43:13;5.80;;;3.23;;
13388;SDS011;6764;53.250;10.410;2023-03-25T05:45:42;8.53;;;3.83;;
13388;SDS011;6764;53.250;10.410;2023-03-25T05:48:09;7.47;;;3.27;;
13388;SDS011;6764;53.250;10.410;2023-03-25T05:50:36;7.53;;;3.60;;
13388;SDS011;6764;53.250;10.410;2023-03-25T05:53:02;5.57;;;3.27;;
13388;SDS011;6764;53.250;10.410;2023-03-25T05:55:28;6.67;;;3.60;;
13388;SDS011;6764;53.250;10.410;2023-03-25T05:57:54;5.40;;;3.80;;
13388;SDS011;6764;53.250;10.410;2023-03-25T06:00:21;4.37;;;3.30;;
13388;SDS011;6764;53.250;10.410;2023-03-25T06:02:47;7.10;;;3.90;;
13388;SDS011;6764;53.250;10.410;2023-03-25T06:05:13;7.40;;;3.87;;
13388;SDS011;6764;53.250;10.410;2023-03-25T06:07:43;5.47;;;3.23;;
13388;SDS011;6764;53.250;10.410;2023-03-25T06:10:12;6.27;;;3.23;;
13388;SDS011;6764;53.250;10.410;2023-03-25T06:12:42;6.73;;;3.70;;
13388;SDS011;6764;53.250;10.410;2023-03-25T06:15:12;8.13;;;3.70;;
13388;SDS011;6764;53.250;10.410;2023-03-25T06:17:45;4.00;;;2.97;;
13388;SDS011;6764;53.250;10.410;2023-03-25T06:20:11;5.40;;;2.87;;
13388;SDS011;6764;53.250;10.410;2023-03-25T06:22:41;9.07;;;3.43;;
13388;SDS011;6764;53.250;10.410;2023-03-25T06:25:08;8.50;;;3.97;;
13388;SDS011;6764;53.250;10.410;2023-03-25T06:27:42;5.27;;;3.50;;
13388;SDS011;6764;53.250;10.410;2023-03-25T06:30:10;6.57;;;3.47;;
13388;SDS011;6764;53.250;10.410;2023-03-25T06:32:41;3.50;;;3.10;;
13388;SDS011;6764;53.250;10.410;2023-03-25T06:35:07;6.77;;;3.07;;
13388;SDS011;6764;53.250;10.410;2023-03-25T06:37:35;8.73;;;3.70;;
13388;SDS011;6764;53.250;10.410;2023-03-25T06:40:01;4.33;;;3.40;;
13388;SDS011;6764;53.250;10.410;2023-03-25T06:42:29;8.00;;;3.37;;
13388;SDS011;6764;53.250;10.410;2023-03-25T06:44:55;8.73;;;3.50;;
13388;SDS011;6764;53.250;10.410;2023-03-25T06:47:20;8.17;;;4.07;;
13388;SDS011;6764;53.250;10.410;2023-03-25T06:49:46;5.90;;;3.13;;
13388;SDS011;6764;53.250;10.410;2023-03-25T06:52:12;5.07;;;2.73;;
13388;SDS011;6764;53.250;10.410;2023-03-25T06:54:38;4.73;;;2.50;;
13388;SDS011;6764;53.250;10.410;2023-03-25T06:57:04;6.13;;;3.17;;
13388;SDS011;6764;53.250;10.410;2023-03-25T06:59:30;7.63;;;2.70;;
13388;SDS011;6764;53.250;10.410;2023-03-25T07:01:56;6.90;;;3.43;;
13388;SDS011;6764;53.250;10.410;2023-03-25T07:04:22;8.17;;;3.30;;
13388;SDS011;6764;53.250;10.410;2023-03-25T07:06:47;5.27;;;2.57;;
13388;SDS011;6764;53.250;10.410;2023-03-25T07:09:13;6.17;;;2.87;;
13388;SDS011;6764;53.250;10.410;2023-03-25T07:11:39;8.03;;;3.53;;
13388;SDS011;6764;53.250;10.410;2023-03-25T07:14:05;5.57;;;2.70;;
13388;SDS011;6764;53.250;10.410;2023-03-25T07:16:31;9.13;;;3.53;;
13388;SDS011;6764;53.250;10.410;2023-03-25T07:18:56;8.07;;;2.93;;
13388;SDS011;6764;53.250;10.410;2023-03-25T07:21:23;5.70;;;2.90;;
13388;SDS011;6764;53.250;10.410;2023-03-25T07:23:49;9.67;;;3.37;;
13388;SDS011;6764;53.250;10.410;2023-03-25T07:26:15;6.70;;;2.53;;
13388;SDS011;6764;53.250;10.410;2023-03-25T07:28:41;5.53;;;2.90;;
13388;SDS011;6764;53.250;10.410;2023-03-25T07:31:07;6.20;;;2.70;;
13388;SDS011;6764;53.250;10.410;2023-03-25T07:33:34;7.33;;;2.70;;
13388;SDS011;6764;53.250;10.410;2023-03-25T07:35:59;3.90;;;2.30;;
13388;SDS011;6764;53.250;10.410;2023-03-25T07:38:25;8.10;;;2.70;;
13388;SDS011;6764;53.250;10.410;2023-03-25T07:40:50;7.37;;;2.63;;
13388;SDS011;6764;53.250;10.410;2023-03-25T07:43:16;6.20;;;2.30;;
13388;SDS011;6764;53.250;10.410;2023-03-25T07:45:42;4.87;;;2.63;;
13388;SDS011;6764;53.250;10.410;2023-03-25T07:48:07;5.33;;;2.30;;
13388;SDS011;6764;53.250;10.410;2023-03-25T07:50:38;6.23;;;2.60;;
13388;SDS011;6764;53.250;10.410;2023-03-25T07:53:04;6.17;;;2.43;;
13388;SDS011;6764;53.250;10.410;2023-03-25T07:55:30;5.33;;;2.10;;
13388;SDS011;6764;53.250;10.410;2023-03-25T07:57:56;2.73;;;2.20;;
13388;SDS011;6764;53.250;10.410;2023-03-25T08:00:24;5.10;;;2.47;;
13388;SDS011;6764;53.250;10.410;2023-03-25T08:02:50;8.10;;;2.40;;
13388;SDS011;6764;53.250;10.410;2023-03-25T08:05:16;4.07;;;2.30;;
13388;SDS011;6764;53.250;10.410;2023-03-25T08:07:46;4.80;;;2.40;;
13388;SDS011;6764;53.250;10.410;2023-03-25T08:10:12;4.90;;;2.43;;
13388;SDS011;6764;53.250;10.410;2023-03-25T08:12:41;3.47;;;2.17;;
13388;SDS011;6764;53.250;10.410;2023-03-25T08:15:07;5.00;;;2.50;;
13388;SDS011;6764;53.250;10.410;2023-03-25T08:17:34;5.77;;;2.43;;
13388;SDS011;6764;53.250;10.410;2023-03-25T08:19:59;4.87;;;2.43;;
13388;SDS011;6764;53.250;10.410;2023-03-25T08:22:28;5.67;;;2.50;;
13388;SDS011;6764;53.250;10.410;2023-03-25T08:24:54;7.40;;;2.37;;
13388;SDS011;6764;53.250;10.410;2023-03-25T08:27:19;2.97;;;2.30;;
13388;SDS011;6764;53.250;10.410;2023-03-25T08:29:45;5.43;;;2.10;;
13388;SDS011;6764;53.250;10.410;2023-03-25T08:32:18;5.90;;;2.83;;
13388;SDS011;6764;53.250;10.410;2023-03-25T08:34:44;4.73;;;2.30;;
13388;SDS011;6764;53.250;10.410;2023-03-25T08:37:10;4.87;;;2.20;;
13388;SDS011;6764;53.250;10.410;2023-03-25T08:39:36;4.03;;;2.10;;
13388;SDS011;6764;53.250;10.410;2023-03-25T08:42:04;3.67;;;2.20;;
13388;SDS011;6764;53.250;10.410;2023-03-25T08:44:30;4.37;;;2.03;;
13388;SDS011;6764;53.250;10.410;2023-03-25T08:46:56;3.67;;;1.90;;
13388;SDS011;6764;53.250;10.410;2023-03-25T08:49:22;5.40;;;2.80;;
13388;SDS011;6764;53.250;10.410;2023-03-25T08:51:47;2.40;;;2.10;;
13388;SDS011;6764;53.250;10.410;2023-03-25T08:54:13;5.47;;;2.30;;
13388;SDS011;6764;53.250;10.410;2023-03-25T08:56:38;2.20;;;2.00;;
13388;SDS011;6764;53.250;10.410;2023-03-25T08:59:04;2.37;;;1.77;;
13388;SDS011;6764;53.250;10.410;2023-03-25T09:01:30;4.70;;;1.90;;
13388;SDS011;6764;53.250;10.410;2023-03-25T09:03:55;5.55;;;1.92;;
13388;SDS011;6764;53.250;10.410;2023-03-25T09:06:22;5.43;;;2.08;;
13388;SDS011;6764;53.250;10.410;2023-03-25T09:08:47;3.10;;;2.10;;
13388;SDS011;6764;53.250;10.410;2023-03-25T09:11:13;6.55;;;2.63;;
13388;SDS011;6764;53.250;10.410;2023-03-25T09:13:40;3.20;;;1.95;;
13388;SDS011;6764;53.250;10.410;2023-03-25T09:16:06;3.65;;;2.08;;
13388;SDS011;6764;53.250;10.410;2023-03-25T09:18:33;3.03;;;1.88;;
13388;SDS011;6764;53.250;10.410;2023-03-25T09:21:00;3.53;;;1.95;;
13388;SDS011;6764;53.250;10.410;2023-03-25T09:23:26;3.47;;;1.70;;
13388;SDS011;6764;53.250;10.410;2023-03-25T09:25:52;5.45;;;1.90;;
13388;SDS011;6764;53.250;10.410;2023-03-25T09:28:17;4.28;;;1.70;;
13388;SDS011;6764;53.250;10.410;2023-03-25T09:30:43;3.17;;;1.58;;
13388;SDS011;6764;53.250;10.410;2023-03-25T09:33:09;3.47;;;2.05;;
13388;SDS011;6764;53.250;10.410;2023-03-25T09:35:36;5.78;;;2.05;;
13388;SDS011;6764;53.250;10.410;2023-03-25T09:38:03;2.20;;;1.58;;
13388;SDS011;6764;53.250;10.410;2023-03-25T09:40:29;2.80;;;1.80;;
13388;SDS011;6764;53.250;10.410;2023-03-25T09:43:16;5.65;;;2.13;;
13388;SDS011;6764;53.250;10.410;2023-03-25T09:45:47;4.80;;;2.20;;
13388;SDS011;6764;53.250;10.410;2023-03-25T09:51:13;4.27;;;1.63;;
13388;SDS011;6764;53.250;10.410;2023-03-25T09:53:45;3.67;;;1.70;;
13388;SDS011;6764;53.250;10.410;2023-03-25T09:56:14;1.90;;;1.50;;
13388;SDS011;6764;53.250;10.410;2023-03-25T09:58:46;0.97;;;0.97;;
13388;SDS011;6764;53.250;10.410;2023-03-25T10:06:31;4.03;;;1.50;;
13388;SDS011;6764;53.250;10.410;2023-03-25T10:14:27;2.53;;;1.57;;
13388;SDS011;6764;53.250;10.410;2023-03-25T10:17:20;3.40;;;1.47;;
13388;SDS011;6764;53.250;10.410;2023-03-25T10:23:17;1.60;;;1.50;;
13388;SDS011;6764;53.250;10.410;2023-03-25T10:25:54;2.93;;;1.70;;
13388;SDS011;6764;53.250;10.410;2023-03-25T10:28:32;6.23;;;2.00;;
13388;SDS011;6764;53.250;10.410;2023-03-25T10:31:02;2.50;;;1.50;;
13388;SDS011;6764;53.250;10.410;2023-03-25T10:33:40;3.73;;;1.90;;
13388;SDS011;6764;53.250;10.410;2023-03-25T10:36:11;7.90;;;2.37;;
13388;SDS011;6764;53.250;10.410;2023-03-25T10:38:43;4.83;;;2.30;;
13388;SDS011;6764;53.250;10.410;2023-03-25T10:43:59;5.47;;;2.10;;
13388;SDS011;6764;53.250;10.410;2023-03-25T10:46:33;4.03;;;1.60;;
13388;SDS011;6764;53.250;10.410;2023-03-25T10:49:12;3.42;;;1.67;;
13388;SDS011;6764;53.250;10.410;2023-03-25T10:51:41;3.25;;;1.50;;
13388;SDS011;6764;53.250;10.410;2023-03-25T10:54:09;4.55;;;1.60;;
13388;SDS011;6764;53.250;10.410;2023-03-25T10:56:38;2.28;;;1.40;;
13388;SDS011;6764;53.250;10.410;2023-03-25T10:59:16;3.80;;;1.50;;
13388;SDS011;6764;53.250;10.410;2023-03-25T11:01:49;5.07;;;1.90;;
13388;SDS011;6764;53.250;10.410;2023-03-25T11:04:18;4.38;;;1.70;;
13388;SDS011;6764;53.250;10.410;2023-03-25T11:06:50;4.65;;;1.55;;
13388;SDS011;6764;53.250;10.410;2023-03-25T11:09:23;3.08;;;1.75;;
13388;SDS011;6764;53.250;10.410;2023-03-25T11:12:00;6.75;;;1.95;;
13388;SDS011;6764;53.250;10.410;2023-03-25T11:14:29;6.53;;;2.55;;
13388;SDS011;6764;53.250;10.410;2023-03-25T11:16:55;4.72;;;2.10;;
13388;SDS011;6764;53.250;10.410;2023-03-25T11:19:32;3.95;;;1.92;;
13388;SDS011;6764;53.250;10.410;2023-03-25T11:22:10;4.05;;;2.00;;
13388;SDS011;6764;53.250;10.410;2023-03-25T11:24:42;4.40;;;1.67;;
13388;SDS011;6764;53.250;10.410;2023-03-25T11:27:10;6.80;;;2.58;;
13388;SDS011;6764;53.250;10.410;2023-03-25T11:29:48;3.57;;;1.83;;
13388;SDS011;6764;53.250;10.410;2023-03-25T11:32:23;4.73;;;2.00;;
13388;SDS011;6764;53.250;10.410;2023-03-25T11:35:01;6.57;;;2.50;;
13388;SDS011;6764;53.250;10.410;2023-03-25T11:37:36;6.23;;;2.33;;
13388;SDS011;6764;53.250;10.410;2023-03-25T11:40:15;8.43;;;2.43;;
13388;SDS011;6764;53.250;10.410;2023-03-25T11:42:46;4.90;;;2.40;;
13388;SDS011;6764;53.250;10.410;2023-03-25T11:45:35;6.27;;;2.60;;
13388;SDS011;6764;53.250;10.410;2023-03-25T11:48:36;4.10;;;1.77;;
13388;SDS011;6764;53.250;10.410;2023-03-25T11:50:56;5.50;;;2.63;;
13388;SDS011;6764;53.250;10.410;2023-03-25T11:53:26;4.63;;;2.30;;
13388;SDS011;6764;53.250;10.410;2023-03-25T11:55:56;5.17;;;2.23;;
13388;SDS011;6764;53.250;10.410;2023-03-25T11:58:26;5.63;;;2.10;;
13388;SDS011;6764;53.250;10.410;2023-03-25T12:01:05;4.63;;;2.40;;
13388;SDS011;6764;53.250;10.410;2023-03-25T12:03:43;5.07;;;2.27;;
13388;SDS011;6764;53.250;10.410;2023-03-25T12:06:19;5.70;;;2.60;;
13388;SDS011;6764;53.250;10.410;2023-03-25T12:08:52;5.60;;;2.27;;
13388;SDS011;6764;53.250;10.410;2023-03-25T12:11:34;6.37;;;3.33;;
13388;SDS011;6764;53.250;10.410;2023-03-25T12:19:42;3.80;;;1.80;;
13388;SDS011;6764;53.250;10.410;2023-03-25T12:35:46;2.33;;;1.87;;
13388;SDS011;6764;53.250;10.410;2023-03-25T12:39:06;1.70;;;1.60;;
13388;SDS011;6764;53.250;10.410;2023-03-25T12:48:57;4.80;;;3.13;;
13388;SDS011;6764;53.250;10.410;2023-03-25T12:51:43;4.60;;;2.30;;
13388;SDS011;6764;53.250;10.410;2023-03-25T13:00:23;5.03;;;3.00;;
13388;SDS011;6764;53.250;10.410;2023-03-25T13:06:25;6.80;;;2.63;;
13388;SDS011;6764;53.250;10.410;2023-03-25T13:11:46;5.93;;;2.10;;
13388;SDS011;6764;53.250;10.410;2023-03-25T13:14:26;6.83;;;2.73;;
13388;SDS011;6764;53.250;10.410;2023-03-25T13:16:54;5.63;;;2.67;;
13388;SDS011;6764;53.250;10.410;2023-03-25T13:19:24;8.10;;;3.00;;
13388;SDS011;6764;53.250;10.410;2023-03-25T13:21:56;4.20;;;2.90;;
13388;SDS011;6764;53.250;10.410;2023-03-25T13:24:37;7.33;;;2.67;;
13388;SDS011;6764;53.250;10.410;2023-03-25T13:27:09;6.53;;;3.40;;
13388;SDS011;6764;53.250;10.410;2023-03-25T13:29:37;7.60;;;3.37;;
13388;SDS011;6764;53.250;10.410;2023-03-25T13:32:17;6.27;;;2.40;;
13388;SDS011;6764;53.250;10.410;2023-03-25T13:37:24;3.60;;;2.60;;
13388;SDS011;6764;53.250;10.410;2023-03-25T13:48:39;4.73;;;2.90;;
13388;SDS011;6764;53.250;10.410;2023-03-25T13:51:12;5.03;;;2.40;;
13388;SDS011;6764;53.250;10.410;2023-03-25T14:11:38;4.10;;;2.07;;
13388;SDS011;6764;53.250;10.410;2023-03-25T14:14:09;4.77;;;2.50;;
13388;SDS011;6764;53.250;10.410;2023-03-25T14:16:40;5.27;;;2.33;;
13388;SDS011;6764;53.250;10.410;2023-03-25T14:19:14;7.70;;;3.60;;
13388;SDS011;6764;53.250;10.410;2023-03-25T14:21:46;7.40;;;2.50;;
13388;SDS011;6764;53.250;10.410;2023-03-25T14:26:50;4.60;;;2.57;;
13388;SDS011;6764;53.250;10.410;2023-03-25T14:29:35;3.40;;;2.20;;
13388;SDS011;6764;53.250;10.410;2023-03-25T14:34:40;4.73;;;2.30;;
13388;SDS011;6764;53.250;10.410;2023-03-25T14:44:24;2.80;;;1.97;;
13388;SDS011;6764;53.250;10.410;2023-03-25T14:47:27;4.77;;;2.27;;
13388;SDS011;6764;53.250;10.410;2023-03-25T14:49:52;5.70;;;2.07;;
13388;SDS011;6764;53.250;10.410;2023-03-25T14:52:54;6.10;;;2.07;;
13388;SDS011;6764;53.250;10.410;2023-03-25T14:58:00;4.13;;;1.70;;
13388;SDS011;6764;53.250;10.410;2023-03-25T15:00:32;3.80;;;2.30;;
13388;SDS011;6764;53.250;10.410;2023-03-25T15:03:08;3.33;;;1.90;;
13388;SDS011;6764;53.250;10.410;2023-03-25T15:05:37;4.23;;;3.00;;
13388;SDS011;6764;53.250;10.410;2023-03-25T15:10:42;4.30;;;2.13;;
13388;SDS011;6764;53.250;10.410;2023-03-25T15:13:16;6.90;;;2.20;;
13388;SDS011;6764;53.250;10.410;2023-03-25T15:15:59;4.47;;;1.97;;
13388;SDS011;6764;53.250;10.410;2023-03-25T15:23:40;4.47;;;2.10;;
13388;SDS011;6764;53.250;10.410;2023-03-25T15:26:34;4.37;;;2.20;;
13388;SDS011;6764;53.250;10.410;2023-03-25T15:29:23;3.33;;;1.87;;
13388;SDS011;6764;53.250;10.410;2023-03-25T15:56:10;5.33;;;2.87;;
13388;SDS011;6764;53.250;10.410;2023-03-25T15:58:38;3.77;;;2.53;;
13388;SDS011;6764;53.250;10.410;2023-03-25T16:01:28;3.07;;;2.00;;
13388;SDS011;6764;53.250;10.410;2023-03-25T16:04:10;4.37;;;2.17;;
13388;SDS011;6764;53.250;10.410;2023-03-25T16:06:39;4.00;;;1.80;;
13388;SDS011;6764;53.250;10.410;2023-03-25T16:09:10;3.87;;;1.70;;
13388;SDS011;6764;53.250;10.410;2023-03-25T16:11:44;6.40;;;2.17;;
13388;SDS011;6764;53.250;10.410;2023-03-25T16:14:14;4.00;;;2.60;;
13388;SDS011;6764;53.250;10.410;2023-03-25T16:16:51;5.57;;;2.40;;
13388;SDS011;6764;53.250;10.410;2023-03-25T16:19:20;4.47;;;2.87;;
13388;SDS011;6764;53.250;10.410;2023-03-25T16:22:14;6.10;;;3.20;;
13388;SDS011;6764;53.250;10.410;2023-03-25T16:24:41;7.53;;;2.80;;
13388;SDS011;6764;53.250;10.410;2023-03-25T16:27:12;5.57;;;2.87;;
13388;SDS011;6764;53.250;10.410;2023-03-25T16:29:48;4.10;;;1.87;;
13388;SDS011;6764;53.250;10.410;2023-03-25T16:32:18;2.90;;;1.87;;
13388;SDS011;6764;53.250;10.410;2023-03-25T16:34:46;8.37;;;6.57;;
13388;SDS011;6764;53.250;10.410;2023-03-25T16:37:12;7.83;;;2.83;;
13388;SDS011;6764;53.250;10.410;2023-03-25T16:39:38;9.50;;;3.33;;
13388;SDS011;6764;53.250;10.410;2023-03-25T16:42:05;7.63;;;2.30;;
13388;SDS011;6764;53.250;10.410;2023-03-25T16:44:58;2.47;;;2.00;;
13388;SDS011;6764;53.250;10.410;2023-03-25T16:47:24;4.33;;;2.33;;
13388;SDS011;6764;53.250;10.410;2023-03-25T16:49:51;5.93;;;2.90;;
13388;SDS011;6764;53.250;10.410;2023-03-25T16:52:21;4.60;;;2.60;;
13388;SDS011;6764;53.250;10.410;2023-03-25T16:57:32;4.43;;;2.40;;
13388;SDS011;6764;53.250;10.410;2023-03-25T17:00:19;5.93;;;2.40;;
13388;SDS011;6764;53.250;10.410;2023-03-25T17:02:47;3.40;;;2.37;;
13388;SDS011;6764;53.250;10.410;2023-03-25T17:07:48;4.27;;;2.17;;
13388;SDS011;6764;53.250;10.410;2023-03-25T17:10:28;4.10;;;2.10;;
13388;SDS011;6764;53.250;10.410;2023-03-25T17:12:58;3.90;;;2.13;;
13388;SDS011;6764;53.250;10.410;2023-03-25T17:15:31;5.73;;;2.37;;
13388;SDS011;6764;53.250;10.410;2023-03-25T17:18:01;6.27;;;4.17;;
13388;SDS011;6764;53.250;10.410;2023-03-25T17:20:37;4.27;;;2.80;;
13388;SDS011;6764;53.250;10.410;2023-03-25T17:25:34;4.63;;;2.20;;
13388;SDS011;6764;53.250;10.410;2023-03-25T17:30:48;7.00;;;2.73;;
13388;SDS011;6764;53.250;10.410;2023-03-25T17:36:03;5.33;;;2.20;;
13388;SDS011;6764;53.250;10.410;2023-03-25T17:38:34;5.13;;;2.60;;
13388;SDS011;6764;53.250;10.410;2023-03-25T17:41:05;5.10;;;2.60;;
13388;SDS011;6764;53.250;10.410;2023-03-25T17:43:33;6.77;;;2.50;;
13388;SDS011;6764;53.250;10.410;2023-03-25T17:46:00;1.87;;;1.63;;
13388;SDS011;6764;53.250;10.410;2023-03-25T17:48:29;3.10;;;2.00;;
13388;SDS011;6764;53.250;10.410;2023-03-25T17:50:55;2.70;;;1.80;;
13388;SDS011;6764;53.250;10.410;2023-03-25T17:53:22;1.87;;;1.77;;
13388;SDS011;6764;53.250;10.410;2023-03-25T17:55:49;4.27;;;2.33;;
13388;SDS011;6764;53.250;10.410;2023-03-25T17:58:15;3.33;;;1.93;;
13388;SDS011;6764;53.250;10.410;2023-03-25T18:00:41;3.17;;;1.90;;
13388;SDS011;6764;53.250;10.410;2023-03-25T18:03:16;2.97;;;1.60;;
13388;SDS011;6764;53.250;10.410;2023-03-25T18:05:44;2.10;;;1.80;;
13388;SDS011;6764;53.250;10.410;2023-03-25T18:08:14;2.70;;;1.70;;
13388;SDS011;6764;53.250;10.410;2023-03-25T18:10:41;2.40;;;1.97;;